Time;durP1;ratioP1;P1;durP2;ratioP2;P2;SDS_P1;SDS_P2;PMS_P1;PMS_P2;Temp;Humidity;BMP_temperature;BMP_pressure;BME280_temperature;BME280_humidity;BME280_pressure;Samples;Min_cycle;Max_cycle;Signal;HPM_P1;HPM_P2
2022/03/02 00:00:58;;;;;;;13.98;11.45;;;;;;;1.64;70.90;98976.53;4172087;28;20230;-86
2022/03/02 00:03:01;;;;;;;12.43;9.63;;;;;;;1.61;70.83;98980.03;4170625;28;20662;-86
2022/03/02 00:05:04;;;;;;;18.58;11.40;;;;;;;1.64;70.53;98981.66;4168240;28;20659;-86
2022/03/02 00:07:07;;;;;;;17.73;10.45;;;;;;;1.64;70.80;98979.97;4170558;28;20236;-86
2022/03/02 00:09:12;;;;;;;15.15;10.88;;;;;;;1.62;70.51;98975.72;4154777;28;20203;-86
2022/03/02 00:11:17;;;;;;;14.80;10.25;;;;;;;1.60;70.63;98982.63;4175428;28;20206;-87
2022/03/02 00:13:20;;;;;;;17.27;11.55;;;;;;;1.58;71.06;98985.22;4166575;28;20229;-86
2022/03/02 00:15:23;;;;;;;17.58;12.10;;;;;;;1.58;70.66;98990.34;4147772;28;20199;-86
2022/03/02 00:17:26;;;;;;;17.02;10.63;;;;;;;1.58;71.13;98984.34;4169139;28;20234;-86
2022/03/02 00:19:29;;;;;;;15.10;11.00;;;;;;;1.52;70.99;98993.03;4154338;28;20214;-86
2022/03/02 00:21:32;;;;;;;14.70;10.88;;;;;;;1.54;70.52;98993.84;4170126;28;20202;-86
2022/03/02 00:23:35;;;;;;;15.18;10.02;;;;;;;1.52;70.62;98989.63;4171053;28;20202;-86
2022/03/02 00:25:40;;;;;;;16.45;10.43;;;;;;;1.53;70.54;98987.03;4171386;28;20255;-86
2022/03/02 00:27:43;;;;;;;16.75;10.55;;;;;;;1.49;70.58;98982.81;4169557;28;20248;-87
2022/03/02 00:29:46;;;;;;;12.77;10.00;;;;;;;1.50;70.72;98971.69;4171639;28;20627;-86
2022/03/02 00:31:49;;;;;;;14.10;9.98;;;;;;;1.54;70.65;98968.16;4154461;28;20590;-86
2022/03/02 00:33:53;;;;;;;13.68;10.45;;;;;;;1.53;70.48;98956.19;4174771;28;20198;-86
2022/03/02 00:35:56;;;;;;;15.10;10.40;;;;;;;1.52;70.58;98964.78;4170554;28;20694;-86
2022/03/02 00:37:59;;;;;;;14.88;10.70;;;;;;;1.46;70.97;98953.78;4149986;28;20204;-86
2022/03/02 00:40:02;;;;;;;13.88;10.27;;;;;;;1.41;71.00;98948.72;4169613;28;20195;-86
2022/03/02 00:42:07;;;;;;;14.65;10.32;;;;;;;1.44;70.35;98940.97;4171988;28;20202;-86
2022/03/02 00:44:10;;;;;;;15.38;10.55;;;;;;;1.46;70.76;98938.38;4171427;28;20210;-86
2022/03/02 00:46:14;;;;;;;15.95;10.20;;;;;;;1.52;70.82;98951.09;4169205;28;20214;-86
2022/03/02 00:48:18;;;;;;;13.70;10.70;;;;;;;1.53;70.84;98945.06;4171420;28;20207;-86
2022/03/02 00:50:21;;;;;;;15.68;9.88;;;;;;;1.54;70.78;98952.72;4176998;28;20623;-86
2022/03/02 00:52:25;;;;;;;15.68;10.82;;;;;;;1.57;70.44;98944.97;4171064;28;20202;-87
2022/03/02 00:54:28;;;;;;;16.48;10.38;;;;;;;1.63;70.59;98941.44;4175376;28;20207;-86
2022/03/02 00:56:31;;;;;;;16.38;9.90;;;;;;;1.63;71.11;98947.41;4175202;28;20238;-86
2022/03/02 00:58:35;;;;;;;15.82;9.95;;;;;;;1.64;71.01;98938.84;4164537;28;20239;-86
2022/03/02 01:00:39;;;;;;;17.95;11.20;;;;;;;1.64;71.52;98936.28;4163974;28;20215;-86
2022/03/02 01:02:42;;;;;;;14.20;9.70;;;;;;;1.65;71.18;98927.66;4169218;28;20207;-86
2022/03/02 01:04:45;;;;;;;15.85;10.32;;;;;;;1.66;72.01;98925.97;4156085;28;20230;-86
2022/03/02 01:06:48;;;;;;;15.70;10.20;;;;;;;1.68;71.74;98930.19;4156463;28;20207;-85
2022/03/02 01:08:51;;;;;;;14.95;9.68;;;;;;;1.72;71.41;98936.13;4172858;28;20210;-86
2022/03/02 01:10:54;;;;;;;14.95;10.60;;;;;;;1.75;71.87;98939.47;4176387;28;20252;-86
2022/03/02 01:12:57;;;;;;;13.90;10.13;;;;;;;1.75;71.32;98936.91;4171534;28;20228;-86
2022/03/02 01:15:02;;;;;;;17.33;9.73;;;;;;;1.75;71.56;98936.91;4153445;28;20706;-86
2022/03/02 01:17:05;;;;;;;12.63;9.25;;;;;;;1.77;71.52;98929.16;4158319;28;20215;-86
2022/03/02 01:19:08;;;;;;;16.90;9.80;;;;;;;1.78;71.50;98933.44;4170342;28;20229;-85
2022/03/02 01:21:11;;;;;;;14.80;10.13;;;;;;;1.82;70.92;98938.47;4168992;28;20695;-86
2022/03/02 01:23:15;;;;;;;16.40;10.30;;;;;;;1.83;71.07;98934.16;4154224;28;20224;-86
2022/03/02 01:25:18;;;;;;;15.15;10.07;;;;;;;1.84;71.31;98931.56;4169746;28;20723;-86
2022/03/02 01:27:21;;;;;;;12.95;9.63;;;;;;;1.83;71.30;98935.00;4157292;28;20235;-87
2022/03/02 01:29:24;;;;;;;15.20;10.65;;;;;;;1.85;71.53;98937.53;4177223;28;20687;-86
2022/03/02 01:31:28;;;;;;;17.73;10.80;;;;;;;1.84;71.02;98930.72;4166148;28;20249;-86
2022/03/02 01:33:31;;;;;;;16.05;10.82;;;;;;;1.82;71.68;98928.19;4171378;28;20253;-86
2022/03/02 01:35:35;;;;;;;16.75;10.63;;;;;;;1.83;71.77;98929.03;4174958;28;20211;-86
2022/03/02 01:37:38;;;;;;;16.65;11.07;;;;;;;1.84;71.51;98926.44;4175531;28;20248;-87
2022/03/02 01:39:41;;;;;;;14.98;10.70;;;;;;;1.84;72.13;98918.72;4173485;28;20214;-86
2022/03/02 01:41:44;;;;;;;11.77;9.35;;;;;;;1.84;71.18;98916.16;4164339;28;20256;-86
2022/03/02 01:43:48;;;;;;;16.20;10.27;;;;;;;1.85;71.16;98911.84;4175491;28;20219;-87
2022/03/02 01:45:51;;;;;;;18.45;11.15;;;;;;;1.86;72.26;98908.41;4175959;28;20297;-86
2022/03/02 01:47:59;;;;;;;14.55;10.30;;;;;;;1.85;71.82;98907.56;4171964;28;20253;-86
2022/03/02 01:50:03;;;;;;;15.48;10.43;;;;;;;1.87;71.90;98898.09;4172603;28;20584;-86
2022/03/02 01:52:06;;;;;;;13.75;10.77;;;;;;;1.86;71.63;98901.53;4160095;28;20215;-87
2022/03/02 01:54:09;;;;;;;14.85;10.60;;;;;;;1.87;70.91;98899.81;4170141;28;20277;-85
2022/03/02 01:56:13;;;;;;;17.33;11.77;;;;;;;1.90;71.33;98901.44;4173839;28;20630;-86
2022/03/02 01:58:16;;;;;;;16.33;11.00;;;;;;;1.91;71.66;98897.16;4156579;28;20226;-86
2022/03/02 02:00:22;;;;;;;14.32;10.45;;;;;;;1.91;71.43;98895.41;4168247;28;20257;-87
2022/03/02 02:02:25;;;;;;;16.75;10.60;;;;;;;1.90;71.56;98890.31;4172983;28;20662;-87
2022/03/02 02:04:30;;;;;;;12.82;9.73;;;;;;;1.89;70.89;98886.91;4181933;28;20237;-86
2022/03/02 02:06:33;;;;;;;13.65;9.77;;;;;;;1.91;70.87;98881.72;4159925;28;20223;-87
2022/03/02 02:08:36;;;;;;;16.98;11.20;;;;;;;1.89;71.22;98880.88;4173039;28;20942;-87
2022/03/02 02:10:40;;;;;;;13.75;9.48;;;;;;;1.92;71.15;98873.97;4171717;28;20204;-86
2022/03/02 02:12:43;;;;;;;13.80;10.48;;;;;;;1.91;71.04;98881.72;4174581;28;20198;-86
2022/03/02 02:14:46;;;;;;;15.15;10.70;;;;;;;1.89;71.05;98870.59;4170531;28;20261;-85
2022/03/02 02:16:49;;;;;;;17.20;10.68;;;;;;;1.88;71.04;98867.19;4170417;28;20625;-86
2022/03/02 02:18:54;;;;;;;14.23;9.60;;;;;;;1.87;70.79;98862.09;4155059;28;20227;-86
2022/03/02 02:21:03;;;;;;;15.93;10.57;;;;;;;1.88;71.22;98861.22;4167140;28;20563;-86
2022/03/02 02:23:06;;;;;;;15.13;10.43;;;;;;;1.87;70.66;98857.78;4156778;28;20203;-86
2022/03/02 02:25:10;;;;;;;14.98;9.55;;;;;;;1.87;71.19;98852.66;4168787;28;20693;-87
2022/03/02 02:27:14;;;;;;;16.67;11.27;;;;;;;1.87;71.25;98844.09;4157953;28;20631;-87
2022/03/02 02:29:18;;;;;;;11.50;9.15;;;;;;;1.85;71.06;98835.59;4172507;28;20291;-86
2022/03/02 02:31:22;;;;;;;13.73;9.75;;;;;;;1.84;70.44;98830.47;4155586;28;20269;-86
2022/03/02 02:33:26;;;;;;;15.23;10.07;;;;;;;1.82;70.39;98827.94;4171816;28;20401;-86
2022/03/02 02:35:29;;;;;;;16.58;10.43;;;;;;;1.82;71.03;98825.38;4156729;28;20212;-87
2022/03/02 02:37:35;;;;;;;14.23;10.23;;;;;;;1.81;70.34;98815.94;4179400;28;20247;-86
2022/03/02 02:39:38;;;;;;;14.85;10.25;;;;;;;1.80;70.81;98821.97;4181676;28;20202;-85
2022/03/02 02:41:41;;;;;;;18.20;11.15;;;;;;;1.78;70.69;98820.31;4185637;28;20197;-86
2022/03/02 02:43:44;;;;;;;17.60;11.15;;;;;;;1.74;71.23;98814.38;4168125;28;20205;-86
2022/03/02 02:45:48;;;;;;;13.95;9.82;;;;;;;1.71;70.66;98805.91;4174495;28;20304;-87
2022/03/02 02:47:54;;;;;;;15.05;11.07;;;;;;;1.70;71.18;98806.78;4171342;28;20756;-86
2022/03/02 02:49:57;;;;;;;19.35;12.10;;;;;;;1.67;70.74;98804.28;4172957;28;20674;-87
2022/03/02 02:52:00;;;;;;;15.73;10.25;;;;;;;1.63;71.40;98808.66;4170935;28;20211;-87
2022/03/02 02:54:05;;;;;;;17.75;11.05;;;;;;;1.59;71.75;98799.31;4169477;28;20202;-86
2022/03/02 02:56:08;;;;;;;16.02;10.95;;;;;;;1.56;71.53;98806.25;4167520;28;20207;-87
2022/03/02 02:58:11;;;;;;;16.52;11.15;;;;;;;1.50;71.65;98814.09;4168350;28;20280;-86
2022/03/02 03:00:17;;;;;;;18.80;10.70;;;;;;;1.47;72.07;98807.31;4172857;28;20203;-87
2022/03/02 03:02:21;;;;;;;16.02;10.38;;;;;;;1.45;72.19;98808.22;4174089;28;20580;-86
2022/03/02 03:04:24;;;;;;;15.65;10.20;;;;;;;1.43;71.71;98804.84;4158161;28;20238;-86
2022/03/02 03:06:27;;;;;;;16.73;11.13;;;;;;;1.39;71.90;98814.31;4158010;28;20203;-86
2022/03/02 03:08:30;;;;;;;13.57;9.75;;;;;;;1.38;72.00;98827.19;4150774;28;20676;-86
2022/03/02 03:10:34;;;;;;;16.33;11.00;;;;;;;1.36;72.27;98822.97;4175619;28;20221;-86
2022/03/02 03:12:38;;;;;;;17.30;11.20;;;;;;;1.31;72.31;98828.19;4169101;28;20214;-86
2022/03/02 03:14:41;;;;;;;18.33;11.68;;;;;;;1.29;72.09;98829.94;4154929;28;20210;-86
2022/03/02 03:16:44;;;;;;;14.32;9.70;;;;;;;1.31;72.12;98829.91;4172901;28;20571;-86
2022/03/02 03:18:47;;;;;;;14.10;10.90;;;;;;;1.28;72.03;98828.25;4169832;28;20223;-86
2022/03/02 03:20:50;;;;;;;17.00;10.20;;;;;;;1.22;71.98;98830.09;4158550;28;20214;-87
2022/03/02 03:22:53;;;;;;;18.30;10.63;;;;;;;1.16;72.18;98835.38;4173661;28;20293;-86
2022/03/02 03:24:57;;;;;;;14.82;11.30;;;;;;;1.15;72.44;98844.78;4172054;28;20264;-86
2022/03/02 03:27:01;;;;;;;16.85;10.45;;;;;;;1.12;72.29;98846.56;4161479;28;20210;-86
2022/03/02 03:29:04;;;;;;;16.05;10.60;;;;;;;1.08;72.00;98844.94;4164785;28;20269;-87
2022/03/02 03:31:08;;;;;;;16.00;10.75;;;;;;;1.05;72.35;98842.41;4169341;28;20860;-86
2022/03/02 03:33:11;;;;;;;16.45;11.43;;;;;;;1.05;72.02;98842.41;4156569;28;20211;-86
2022/03/02 03:35:15;;;;;;;13.63;10.70;;;;;;;1.03;72.69;98839.03;4175679;28;20256;-86
2022/03/02 03:37:18;;;;;;;14.68;9.93;;;;;;;1.04;72.62;98848.44;4175340;28;20210;-86
2022/03/02 03:39:21;;;;;;;16.17;10.38;;;;;;;1.02;71.98;98843.34;4171515;28;20474;-86
2022/03/02 03:41:25;;;;;;;14.35;10.50;;;;;;;0.99;72.04;98843.41;4171982;28;20213;-86
2022/03/02 03:43:29;;;;;;;12.27;9.30;;;;;;;0.98;72.46;98846.84;4171716;28;20207;-87
2022/03/02 03:45:32;;;;;;;16.10;10.65;;;;;;;0.93;72.35;98841.81;4153501;28;20342;-87
2022/03/02 03:47:35;;;;;;;18.60;11.32;;;;;;;0.85;72.11;98844.53;4171788;28;20199;-87
2022/03/02 03:49:39;;;;;;;17.50;11.43;;;;;;;0.81;72.89;98842.03;4169854;28;20279;-87
2022/03/02 03:51:42;;;;;;;16.98;11.20;;;;;;;0.78;72.76;98836.97;4167341;28;20199;-86
2022/03/02 03:53:45;;;;;;;16.75;11.15;;;;;;;0.75;72.73;98834.44;4160563;28;20198;-86
2022/03/02 03:55:48;;;;;;;17.13;12.05;;;;;;;0.76;73.17;98843.84;4171612;28;20757;-87
2022/03/02 03:57:51;;;;;;;16.23;10.60;;;;;;;0.73;72.87;98841.34;4170046;28;20210;-87
2022/03/02 03:59:55;;;;;;;20.13;11.40;;;;;;;0.72;73.05;98837.94;4170588;28;20226;-86
2022/03/02 04:01:59;;;;;;;18.58;11.80;;;;;;;0.75;73.34;98837.88;4168293;28;20261;-86
2022/03/02 04:04:03;;;;;;;15.98;10.93;;;;;;;0.77;72.89;98841.25;4167675;28;20289;-86
2022/03/02 04:06:06;;;;;;;14.65;10.27;;;;;;;0.74;73.00;98833.59;4156137;28;20276;-86
2022/03/02 04:08:09;;;;;;;13.98;9.80;;;;;;;0.75;72.79;98834.44;4167664;28;20237;-86
2022/03/02 04:10:13;;;;;;;17.48;10.95;;;;;;;0.75;73.27;98827.63;4174311;28;20201;-86
2022/03/02 04:12:17;;;;;;;15.82;9.90;;;;;;;0.76;72.87;98824.16;4175278;28;20236;-87
2022/03/02 04:14:20;;;;;;;16.23;11.32;;;;;;;0.76;72.75;98824.16;4166933;28;20191;-86
2022/03/02 04:16:24;;;;;;;15.77;10.55;;;;;;;0.73;72.82;98807.97;4172139;28;20205;-85
2022/03/02 04:18:28;;;;;;;16.85;11.68;;;;;;;0.63;72.45;98802.19;4173185;28;20224;-85
2022/03/02 04:20:31;;;;;;;17.50;10.57;;;;;;;0.58;72.81;98803.97;4152040;28;20211;-86
2022/03/02 04:22:34;;;;;;;15.57;10.50;;;;;;;0.53;73.04;98800.63;4167600;28;20213;-86
2022/03/02 04:24:37;;;;;;;16.80;12.15;;;;;;;0.49;73.38;98796.41;4173562;28;20209;-85
2022/03/02 04:26:40;;;;;;;13.93;10.02;;;;;;;0.53;73.45;98794.66;4176029;28;20849;-87
2022/03/02 04:28:43;;;;;;;15.50;11.10;;;;;;;0.54;73.44;98791.22;4175708;28;20194;-86
2022/03/02 04:30:46;;;;;;;16.75;10.73;;;;;;;0.55;73.58;98788.63;4157242;28;20256;-85
2022/03/02 04:32:51;;;;;;;16.38;10.30;;;;;;;0.54;72.98;98781.81;4168384;28;20218;-85
2022/03/02 04:34:54;;;;;;;17.75;10.43;;;;;;;0.56;72.94;98782.63;4170567;28;20730;-85
2022/03/02 04:36:58;;;;;;;16.05;10.85;;;;;;;0.54;73.28;98784.38;4169540;28;20216;-86
2022/03/02 04:39:01;;;;;;;15.02;10.45;;;;;;;0.57;73.32;98776.63;4169259;28;20223;-86
2022/03/02 04:41:04;;;;;;;17.33;10.68;;;;;;;0.60;73.34;98773.16;4158394;28;20195;-86
2022/03/02 04:43:07;;;;;;;16.38;11.20;;;;;;;0.62;73.63;98774.81;4177035;28;20199;-86
2022/03/02 04:45:11;;;;;;;13.27;9.77;;;;;;;0.66;73.34;98785.84;4158556;28;20205;-86
2022/03/02 04:47:14;;;;;;;16.75;11.15;;;;;;;0.65;73.51;98781.63;4168594;28;20250;-86
2022/03/02 04:49:20;;;;;;;18.92;11.82;;;;;;;0.64;73.91;98775.63;4171789;28;20202;-86
2022/03/02 04:51:23;;;;;;;19.63;10.63;;;;;;;0.62;73.56;98774.81;4169630;28;20221;-86
2022/03/02 04:53:26;;;;;;;18.90;11.15;;;;;;;0.59;73.76;98771.47;4169375;28;20737;-85
2022/03/02 04:55:30;;;;;;;18.73;11.60;;;;;;;0.57;73.91;98766.38;4171271;28;21054;-86
2022/03/02 04:57:33;;;;;;;16.08;11.15;;;;;;;0.56;73.86;98774.09;4154514;28;20852;-86
2022/03/02 04:59:37;;;;;;;17.10;11.02;;;;;;;0.56;74.09;98771.53;4187871;28;20638;-85
2022/03/02 05:01:40;;;;;;;16.15;11.30;;;;;;;0.56;74.18;98774.94;4169276;28;20741;-85
2022/03/02 05:03:43;;;;;;;18.92;11.05;;;;;;;0.55;74.30;98767.25;4176804;28;20229;-85
2022/03/02 05:05:48;;;;;;;16.98;11.30;;;;;;;0.54;74.31;98769.00;4175640;28;20612;-86
2022/03/02 05:07:51;;;;;;;15.95;11.05;;;;;;;0.51;74.35;98768.19;4171718;28;20272;-86
2022/03/02 05:09:54;;;;;;;14.25;10.50;;;;;;;0.50;74.25;98775.03;4150680;28;20602;-85
2022/03/02 05:11:57;;;;;;;24.58;10.43;;;;;;;0.51;74.37;98771.63;4155983;28;20203;-86
2022/03/02 05:14:00;;;;;;;16.33;10.85;;;;;;;0.51;74.12;98775.88;4168227;28;20210;-85
2022/03/02 05:16:04;;;;;;;15.82;10.32;;;;;;;0.50;74.40;98774.22;4152645;28;20633;-85
2022/03/02 05:18:07;;;;;;;14.63;10.55;;;;;;;0.47;74.60;98780.22;4166573;28;20210;-85
2022/03/02 05:20:12;;;;;;;17.25;9.93;;;;;;;0.44;73.82;98774.31;4169445;28;20269;-85
2022/03/02 05:22:16;;;;;;;15.13;9.75;;;;;;;0.41;74.36;98776.06;4168778;28;20253;-86
2022/03/02 05:24:19;;;;;;;13.90;9.75;;;;;;;0.42;74.33;98775.19;4167455;28;20219;-85
2022/03/02 05:26:23;;;;;;;16.27;10.05;;;;;;;0.41;74.18;98766.69;4154608;28;20222;-86
2022/03/02 05:28:26;;;;;;;14.82;9.57;;;;;;;0.39;74.20;98765.00;4169177;28;20214;-85
2022/03/02 05:30:29;;;;;;;14.88;9.98;;;;;;;0.40;74.19;98766.69;4155422;28;20229;-86
2022/03/02 05:32:32;;;;;;;15.40;10.00;;;;;;;0.42;74.15;98764.94;4169550;28;20230;-86
2022/03/02 05:34:35;;;;;;;14.60;9.85;;;;;;;0.41;74.14;98761.53;4150291;28;20207;-86
2022/03/02 05:36:38;;;;;;;13.98;10.20;;;;;;;0.43;73.94;98767.47;4158123;28;21973;-86
2022/03/02 05:38:42;;;;;;;17.23;9.85;;;;;;;0.42;74.09;98760.66;4174113;28;20253;-86
2022/03/02 05:40:45;;;;;;;16.60;10.30;;;;;;;0.40;74.37;98764.97;4171978;28;20230;-86
2022/03/02 05:42:48;;;;;;;18.85;10.85;;;;;;;0.40;74.60;98762.41;4158982;28;20703;-86
2022/03/02 05:44:51;;;;;;;14.63;10.18;;;;;;;0.46;74.30;98768.25;4167554;28;20191;-86
2022/03/02 05:46:54;;;;;;;14.88;9.85;;;;;;;0.46;74.35;98767.44;4159424;28;20663;-85
2022/03/02 05:48:58;;;;;;;14.45;10.35;;;;;;;0.43;74.04;98764.09;4175899;28;20198;-85
2022/03/02 05:51:01;;;;;;;14.98;9.82;;;;;;;0.42;73.81;98764.94;4176383;28;20233;-85
2022/03/02 05:53:04;;;;;;;15.32;10.75;;;;;;;0.31;73.93;98759.16;4169301;28;20263;-86
2022/03/02 05:55:09;;;;;;;15.85;11.13;;;;;;;0.28;74.18;98764.34;4175295;28;20202;-85
2022/03/02 05:57:13;;;;;;;14.40;10.55;;;;;;;0.28;74.19;98764.34;4170432;28;20264;-85
2022/03/02 05:59:17;;;;;;;16.10;10.63;;;;;;;0.27;74.16;98766.09;4171132;28;20233;-86
2022/03/02 06:01:20;;;;;;;22.23;13.07;;;;;;;0.20;73.93;98759.34;4173745;28;20317;-85
2022/03/02 06:03:23;;;;;;;18.60;11.50;;;;;;;0.19;74.00;98757.66;4177791;28;20245;-85
2022/03/02 06:05:26;;;;;;;12.80;10.20;;;;;;;0.20;74.00;98751.66;4168867;28;20242;-85
2022/03/02 06:07:30;;;;;;;16.50;10.18;;;;;;;0.20;74.56;98753.41;4187012;28;20208;-85
2022/03/02 06:09:33;;;;;;;18.77;11.80;;;;;;;0.20;74.69;98751.66;4171081;28;20545;-85
2022/03/02 06:11:38;;;;;;;15.23;10.02;;;;;;;0.17;74.45;98751.72;4171012;28;20755;-86
2022/03/02 06:13:42;;;;;;;14.27;9.75;;;;;;;0.16;74.81;98752.56;4170095;28;20594;-86
2022/03/02 06:15:46;;;;;;;16.55;10.20;;;;;;;0.15;74.81;98748.34;4155988;28;20281;-85
2022/03/02 06:17:50;;;;;;;15.13;10.05;;;;;;;0.20;75.09;98749.09;4170390;28;20228;-86
2022/03/02 06:19:53;;;;;;;15.73;11.05;;;;;;;0.23;75.16;98745.66;4171270;28;20210;-85
2022/03/02 06:21:59;;;;;;;14.75;10.75;;;;;;;0.31;75.24;98754.03;4172050;28;20206;-85
2022/03/02 06:24:02;;;;;;;17.00;10.40;;;;;;;0.36;74.77;98749.66;4173766;28;20211;-85
2022/03/02 06:26:07;;;;;;;16.45;10.63;;;;;;;0.39;74.80;98747.88;4172837;28;20210;-86
2022/03/02 06:28:12;;;;;;;15.75;11.15;;;;;;;0.44;74.79;98753.81;4175715;28;20622;-85
2022/03/02 06:30:15;;;;;;;14.38;10.70;;;;;;;0.52;75.18;98751.94;4167158;28;20629;-86
2022/03/02 06:32:18;;;;;;;16.38;9.98;;;;;;;0.60;74.92;98756.06;4171924;28;20226;-86
2022/03/02 06:34:21;;;;;;;39.63;18.50;;;;;;;0.70;74.78;98751.59;4170003;28;20696;-85
2022/03/02 06:36:24;;;;;;;45.30;23.20;;;;;;;0.76;74.71;98747.16;4170549;28;20214;-86
2022/03/02 06:38:28;;;;;;;27.92;15.23;;;;;;;0.83;74.32;98748.75;4171009;28;20255;-86
2022/03/02 06:40:31;;;;;;;18.60;11.77;;;;;;;0.91;74.29;98752.00;4168245;28;20225;-86
2022/03/02 06:42:42;;;;;;;17.98;11.77;;;;;;;0.95;74.92;98749.34;4170482;28;20206;-85
2022/03/02 06:44:51;;;;;;;23.92;11.63;;;;;;;1.01;75.17;98745.81;4168340;28;20276;-86
2022/03/02 06:46:59;;;;;;;17.70;10.93;;;;;;;1.04;74.18;98738.06;4156706;28;20210;-86
2022/03/02 06:49:04;;;;;;;18.05;11.18;;;;;;;1.10;73.98;98737.94;4172854;28;20207;-86
2022/03/02 06:51:08;;;;;;;16.60;11.18;;;;;;;1.16;74.85;98741.22;4171026;28;20686;-86
2022/03/02 06:53:12;;;;;;;17.25;10.98;;;;;;;1.24;74.20;98748.75;4173258;28;20205;-85
2022/03/02 06:55:21;;;;;;;17.90;11.30;;;;;;;1.26;74.57;98745.25;4174358;28;20630;-85
2022/03/02 06:57:28;;;;;;;21.30;11.27;;;;;;;1.32;74.70;98744.28;4170956;28;20217;-86
2022/03/02 06:59:37;;;;;;;19.63;11.15;;;;;;;1.38;73.91;98739.00;4172950;28;20202;-88
2022/03/02 07:01:44;;;;;;;17.58;10.73;;;;;;;1.42;74.58;98729.47;4170690;28;20226;-87
2022/03/02 07:03:50;;;;;;;19.02;11.13;;;;;;;1.46;74.62;98743.94;4156182;28;20242;-87
2022/03/02 07:05:54;;;;;;;19.15;11.15;;;;;;;1.49;74.30;98761.03;4170845;28;20741;-88
2022/03/02 07:08:04;;;;;;;15.32;10.80;;;;;;;1.53;73.95;98767.78;4163312;28;20203;-88
2022/03/02 07:10:09;;;;;;;18.33;11.27;;;;;;;1.58;74.25;98769.38;4188455;28;20248;-91
2022/03/02 07:12:13;;;;;;;18.92;11.70;;;;;;;1.64;74.81;98761.53;4172609;28;20195;-91
2022/03/02 07:14:16;;;;;;;17.13;11.00;;;;;;;1.68;74.61;98749.44;4173602;28;20764;-94
2022/03/02 07:16:21;;;;;;;17.25;11.30;;;;;;;1.70;74.43;98742.53;4172120;28;20206;-91
2022/03/02 07:18:27;;;;;;;17.15;11.43;;;;;;;1.71;74.10;98749.38;4156730;28;20207;-90
2022/03/02 07:20:31;;;;;;;18.95;12.05;;;;;;;1.71;74.24;98754.50;4170425;28;20233;-90
2022/03/02 07:22:35;;;;;;;19.33;12.30;;;;;;;1.74;74.09;98755.28;4169401;28;20202;-89
2022/03/02 07:24:41;;;;;;;19.77;12.88;;;;;;;1.79;74.28;98752.59;4151347;28;20551;-88
2022/03/02 07:26:46;;;;;;;24.98;15.23;;;;;;;1.84;74.23;98746.47;4187279;28;20682;-91
2022/03/02 07:28:49;;;;;;;19.45;12.13;;;;;;;1.89;74.33;98755.78;4174945;28;20206;-88
2022/03/02 07:30:54;;;;;;;16.13;11.15;;;;;;;1.96;73.36;98759.88;4189799;28;20214;-87
2022/03/02 07:33:01;;;;;;;16.20;10.68;;;;;;;1.99;73.75;98756.41;4173733;28;20198;-88
2022/03/02 07:35:07;;;;;;;17.05;10.40;;;;;;;2.06;73.36;98760.50;4177448;28;20682;-90
2022/03/02 07:37:10;;;;;;;17.48;11.52;;;;;;;2.09;73.24;98757.84;4172073;28;20206;-90
2022/03/02 07:39:14;;;;;;;16.88;11.48;;;;;;;2.16;72.79;98757.66;4165767;28;20806;-89
2022/03/02 07:41:18;;;;;;;18.33;12.30;;;;;;;2.17;72.83;98753.38;4173214;28;20226;-90
2022/03/02 07:43:22;;;;;;;25.30;13.57;;;;;;;2.23;72.88;98758.38;4171564;28;20224;-91
2022/03/02 07:45:26;;;;;;;15.80;11.93;;;;;;;2.30;72.39;98758.19;4166830;28;20686;-90
2022/03/02 07:47:29;;;;;;;19.95;14.50;;;;;;;2.37;72.49;98755.38;4171006;28;20198;-90
2022/03/02 07:49:32;;;;;;;15.73;11.65;;;;;;;2.41;71.70;98762.16;4159718;28;20214;-89
2022/03/02 07:51:37;;;;;;;17.30;12.10;;;;;;;2.46;72.70;98759.47;4175687;28;20277;-93
2022/03/02 07:53:42;;;;;;;19.17;12.63;;;;;;;2.54;72.44;98771.25;4172167;28;20202;-93
2022/03/02 07:55:46;;;;;;;18.23;12.88;;;;;;;2.60;72.10;98767.66;4172862;28;20202;-92
2022/03/02 07:57:53;;;;;;;18.02;12.80;;;;;;;2.67;71.84;98770.03;4149036;28;20215;-92
2022/03/02 07:59:58;;;;;;;17.77;12.63;;;;;;;2.73;72.08;98784.47;4153102;28;20254;-92
2022/03/02 08:02:02;;;;;;;21.30;12.55;;;;;;;2.80;71.44;98784.28;4169093;28;20657;-91
2022/03/02 08:04:06;;;;;;;16.95;12.00;;;;;;;2.87;71.42;98778.94;4170798;28;20216;-91
2022/03/02 08:06:11;;;;;;;18.15;12.70;;;;;;;2.92;71.26;98777.06;4192149;28;20205;-90
2022/03/02 08:08:16;;;;;;;23.90;15.10;;;;;;;2.97;71.36;98774.34;4174623;28;20209;-92
2022/03/02 08:10:19;;;;;;;27.00;13.50;;;;;;;3.03;72.27;98771.63;4161665;28;20237;-91
2022/03/02 08:12:23;;;;;;;29.52;17.23;;;;;;;3.06;72.12;98766.38;4153438;28;20719;-91
2022/03/02 08:14:26;;;;;;;37.22;17.48;;;;;;;3.08;71.94;98777.47;4152262;28;20282;-92
2022/03/02 08:16:32;;;;;;;30.05;18.35;;;;;;;3.11;72.13;98772.25;4161881;28;20207;-92
2022/03/02 08:18:35;;;;;;;25.98;15.63;;;;;;;3.15;71.75;98766.97;4169746;28;20206;-87
2022/03/02 08:20:43;;;;;;;26.35;17.20;;;;;;;3.20;71.95;98766.81;4169441;28;20202;-89
2022/03/02 08:22:51;;;;;;;19.63;13.30;;;;;;;3.28;71.45;98758.84;4155972;28;20253;-90
2022/03/02 08:25:07;;;;;;;22.30;14.27;;;;;;;3.36;70.87;98764.59;4166565;28;20198;-89
2022/03/02 08:27:12;;;;;;;26.55;13.40;;;;;;;3.47;71.41;98761.72;4169974;28;20961;-89
2022/03/02 08:29:17;;;;;;;17.17;12.10;;;;;;;3.56;72.04;98759.69;4157253;28;20214;-89
2022/03/02 08:31:21;;;;;;;17.63;11.80;;;;;;;3.68;72.43;98761.91;4169928;28;20582;-88
2022/03/02 08:33:29;;;;;;;20.13;12.82;;;;;;;3.75;72.04;98758.25;4171269;28;20626;-89
2022/03/02 08:35:39;;;;;;;14.77;10.98;;;;;;;3.87;73.70;98752.72;4166601;28;20211;-89
2022/03/02 08:37:43;;;;;;;19.10;12.43;;;;;;;3.98;73.64;98755.78;4154992;28;20617;-89
2022/03/02 08:39:46;;;;;;;18.15;12.20;;;;;;;4.07;74.03;98755.50;4150649;28;20327;-89
2022/03/02 08:41:51;;;;;;;16.50;11.25;;;;;;;4.13;74.09;98747.56;4153815;28;20221;-89
2022/03/02 08:43:55;;;;;;;18.63;11.65;;;;;;;4.21;74.21;98749.84;4169162;28;20209;-89
2022/03/02 08:45:58;;;;;;;15.30;12.07;;;;;;;4.31;73.89;98748.63;4171649;28;20235;-88
2022/03/02 08:48:05;;;;;;;18.30;12.50;;;;;;;4.38;73.26;98750.13;4169971;28;20207;-89
2022/03/02 08:50:09;;;;;;;17.60;11.65;;;;;;;4.51;73.29;98758.28;4183292;28;20199;-88
2022/03/02 08:52:13;;;;;;;16.83;11.00;;;;;;;4.69;73.56;98756.78;4174513;28;20204;-89
2022/03/02 08:54:18;;;;;;;20.13;14.88;;;;;;;4.96;71.83;98753.22;4176457;28;20751;-88
2022/03/02 08:56:22;;;;;;;18.92;13.85;;;;;;;5.19;71.44;98750.66;4179535;28;20208;-88
2022/03/02 08:58:27;;;;;;;19.27;13.10;;;;;;;5.43;69.99;98755.75;4171233;28;20212;-89
2022/03/02 09:00:30;;;;;;;21.17;13.45;;;;;;;5.75;68.82;98753.66;4166459;28;20206;-88
2022/03/02 09:02:36;;;;;;;18.52;12.68;;;;;;;5.97;68.03;98753.66;4188494;28;20269;-89
2022/03/02 09:04:39;;;;;;;17.00;12.90;;;;;;;6.19;68.63;98753.59;4174892;28;20200;-88
2022/03/02 09:06:43;;;;;;;17.98;13.23;;;;;;;6.40;68.23;98750.09;4154935;28;20202;-88
2022/03/02 09:08:46;;;;;;;19.08;12.40;;;;;;;6.57;66.11;98745.09;4152069;28;20219;-89
2022/03/02 09:10:49;;;;;;;16.42;11.80;;;;;;;6.77;67.65;98742.47;4153361;28;20785;-89
2022/03/02 09:12:52;;;;;;;16.13;12.57;;;;;;;6.98;67.17;98738.97;4175373;28;20672;-88
2022/03/02 09:14:58;;;;;;;16.52;12.70;;;;;;;7.22;65.81;98739.53;4169135;28;20257;-88
2022/03/02 09:17:01;;;;;;;19.50;13.63;;;;;;;7.42;68.07;98730.88;4158563;28;20227;-89
2022/03/02 09:19:05;;;;;;;17.00;13.77;;;;;;;7.58;65.07;98732.69;4186883;28;20194;-89
2022/03/02 09:21:09;;;;;;;18.38;13.57;;;;;;;7.65;63.72;98737.53;4171633;28;20467;-89
2022/03/02 09:23:12;;;;;;;20.02;13.32;;;;;;;7.66;64.78;98731.41;4165917;28;20665;-88
2022/03/02 09:25:15;;;;;;;16.05;12.30;;;;;;;7.65;63.27;98732.34;4177185;28;20238;-89
2022/03/02 09:27:20;;;;;;;16.80;12.90;;;;;;;7.64;65.27;98733.25;4174563;28;20253;-89
2022/03/02 09:29:30;;;;;;;18.67;13.30;;;;;;;7.64;62.19;98730.66;4159700;28;20207;-89
2022/03/02 09:31:36;;;;;;;17.63;12.45;;;;;;;7.69;63.35;98733.03;4157616;28;20236;-89
2022/03/02 09:33:43;;;;;;;15.75;12.27;;;;;;;7.89;64.43;98733.75;4187900;28;20229;-89
2022/03/02 09:35:46;;;;;;;14.93;12.30;;;;;;;8.12;64.61;98725.75;4178058;28;20199;-90
2022/03/02 09:37:53;;;;;;;15.68;12.23;;;;;;;8.30;62.11;98723.09;4174632;28;20206;-89